createdAt,value
2023-02-27T00:00:22.028Z,1.80
2023-02-27T00:02:51.436Z,1.70
2023-02-27T00:05:19.893Z,1.70
2023-02-27T00:07:46.740Z,1.70
2023-02-27T00:10:14.740Z,1.70
2023-02-27T00:12:42.862Z,1.60
2023-02-27T00:15:13.133Z,1.80
2023-02-27T00:17:40.148Z,1.80
2023-02-27T00:20:11.339Z,1.70
2023-02-27T00:22:39.670Z,1.70
2023-02-27T00:25:08.264Z,1.60
2023-02-27T00:27:35.545Z,1.80
2023-02-27T00:30:07.674Z,1.60
2023-02-27T00:32:36.663Z,1.80
2023-02-27T00:35:06.293Z,1.70
2023-02-27T00:37:34.524Z,1.70
2023-02-27T00:40:02.014Z,1.80
2023-02-27T00:42:30.935Z,1.80
2023-02-27T00:44:58.392Z,1.70
2023-02-27T00:47:25.244Z,1.80
2023-02-27T00:49:52.562Z,1.90
2023-02-27T00:52:19.374Z,1.70
2023-02-27T00:54:46.234Z,1.90
2023-02-27T00:57:13.226Z,1.70
2023-02-27T00:59:40.111Z,1.80
2023-02-27T01:02:07.123Z,1.80
2023-02-27T01:04:34.227Z,1.80
2023-02-27T01:07:01.441Z,1.80
2023-02-27T01:09:28.460Z,1.50
2023-02-27T01:11:55.493Z,1.50
2023-02-27T01:14:22.318Z,1.70
2023-02-27T01:16:49.496Z,1.60
2023-02-27T01:19:16.593Z,1.60
2023-02-27T01:21:43.644Z,1.50
2023-02-27T01:24:12.590Z,1.50
2023-02-27T01:26:40.194Z,1.60
2023-02-27T01:29:07.104Z,1.60
2023-02-27T01:31:34.848Z,1.60
2023-02-27T01:34:02.061Z,1.60
2023-02-27T01:36:28.982Z,1.70
2023-02-27T01:38:55.788Z,1.60
2023-02-27T01:41:22.683Z,1.50
2023-02-27T01:44:08.785Z,1.60
2023-02-27T01:46:36.621Z,1.80
2023-02-27T01:49:12.791Z,1.50
2023-02-27T01:51:53.760Z,1.50
2023-02-27T01:54:25.742Z,1.50
2023-02-27T01:56:52.807Z,1.60
2023-02-27T01:59:21.435Z,1.60
2023-02-27T02:01:48.886Z,1.60
2023-02-27T02:04:33.131Z,1.60
2023-02-27T02:07:13.237Z,1.50
2023-02-27T02:09:47.969Z,1.60
2023-02-27T02:12:19.060Z,1.60
2023-02-27T02:14:45.899Z,1.40
2023-02-27T02:17:30.932Z,1.50
2023-02-27T02:20:39.728Z,1.70
2023-02-27T02:23:53.059Z,1.70
2023-02-27T02:26:33.567Z,1.70
2023-02-27T02:29:18.403Z,1.60
2023-02-27T02:32:26.595Z,1.40
2023-02-27T02:35:33.068Z,1.30
2023-02-27T02:38:31.262Z,1.40
2023-02-27T02:41:16.887Z,1.40
2023-02-27T02:44:14.985Z,1.50
2023-02-27T02:47:00.444Z,1.50
2023-02-27T02:49:42.034Z,1.40
2023-02-27T02:52:29.990Z,1.30
2023-02-27T02:55:33.201Z,1.60
2023-02-27T02:58:00.083Z,1.50
2023-02-27T03:01:00.108Z,1.40
2023-02-27T03:03:41.725Z,1.50
2023-02-27T03:06:29.595Z,1.30
2023-02-27T03:09:05.750Z,1.40
2023-02-27T03:11:39.733Z,1.50
2023-02-27T03:14:18.804Z,1.60
2023-02-27T03:16:53.357Z,1.50
2023-02-27T03:19:25.836Z,1.40
2023-02-27T03:22:31.040Z,1.40
2023-02-27T03:25:01.357Z,1.50
2023-02-27T03:27:43.435Z,1.60
2023-02-27T03:30:19.902Z,1.50
2023-02-27T03:33:10.600Z,1.50
2023-02-27T03:35:47.018Z,1.60
2023-02-27T03:38:45.259Z,1.50
2023-02-27T03:41:49.223Z,1.30
2023-02-27T03:44:32.814Z,1.40
2023-02-27T03:47:00.159Z,1.50
2023-02-27T03:49:27.327Z,1.40
2023-02-27T03:51:54.922Z,1.50
2023-02-27T03:54:36.308Z,1.50
2023-02-27T03:57:07.631Z,1.60
2023-02-27T03:59:37.678Z,1.50
2023-02-27T04:02:04.992Z,1.40
2023-02-27T04:04:33.261Z,1.50
2023-02-27T04:07:24.777Z,1.60
2023-02-27T04:10:29.369Z,1.50
2023-02-27T04:13:53.395Z,1.50
2023-02-27T04:16:50.604Z,1.50
2023-02-27T04:19:45.447Z,1.40
2023-02-27T04:22:39.282Z,1.30
2023-02-27T04:25:37.341Z,1.40
2023-02-27T04:28:52.561Z,1.40
2023-02-27T04:31:46.610Z,1.50
2023-02-27T04:34:45.055Z,1.50
2023-02-27T04:37:37.808Z,1.40
2023-02-27T04:40:14.333Z,1.30
2023-02-27T04:42:54.869Z,1.40
2023-02-27T04:45:26.203Z,1.50
2023-02-27T04:48:05.623Z,1.30
2023-02-27T04:50:54.062Z,1.20
2023-02-27T04:53:37.820Z,1.30
2023-02-27T04:56:12.795Z,1.30
2023-02-27T04:58:57.172Z,1.30
2023-02-27T05:01:53.472Z,1.00
2023-02-27T05:04:25.022Z,0.90
2023-02-27T05:06:55.579Z,0.80
2023-02-27T05:09:40.297Z,0.70
2023-02-27T05:12:21.623Z,0.40
2023-02-27T05:15:28.108Z,0.50
2023-02-27T05:18:06.700Z,0.70
2023-02-27T05:21:01.122Z,0.50
2023-02-27T05:24:00.169Z,0.30
2023-02-27T05:26:59.101Z,0.50
2023-02-27T05:29:51.141Z,0.10
2023-02-27T05:33:07.460Z,0.20
2023-02-27T05:36:06.274Z,0.00
2023-02-27T05:38:50.082Z,0.20
2023-02-27T05:41:25.963Z,0.40
2023-02-27T05:44:11.495Z,0.40
2023-02-27T05:46:45.593Z,0.40
2023-02-27T05:49:22.799Z,0.50
2023-02-27T05:51:54.928Z,0.40
2023-02-27T05:54:35.179Z,0.50
2023-02-27T05:57:08.138Z,0.30
2023-02-27T05:59:57.396Z,0.40
2023-02-27T06:02:24.787Z,0.50
2023-02-27T06:04:51.747Z,0.50
2023-02-27T06:07:19.153Z,0.30
2023-02-27T06:09:47.242Z,0.00
2023-02-27T06:12:14.140Z,0.00
2023-02-27T06:14:41.006Z,0.40
2023-02-27T06:17:07.780Z,0.40
2023-02-27T06:19:34.633Z,0.00
2023-02-27T06:22:01.476Z,0.40
2023-02-27T06:24:28.328Z,0.50
2023-02-27T06:26:55.166Z,0.40
2023-02-27T06:29:22.269Z,0.20
2023-02-27T06:31:49.186Z,0.20
2023-02-27T06:34:15.969Z,0.50
2023-02-27T06:36:42.860Z,0.20
2023-02-27T06:39:09.741Z,0.30
2023-02-27T06:41:36.598Z,0.20
2023-02-27T06:44:03.551Z,0.10
2023-02-27T06:46:30.702Z,0.30
2023-02-27T06:48:57.692Z,0.20
2023-02-27T06:51:24.627Z,0.20
2023-02-27T06:53:51.775Z,0.30
2023-02-27T06:56:18.955Z,0.60
2023-02-27T06:58:45.749Z,0.50
2023-02-27T07:01:13.668Z,0.60
2023-02-27T07:03:40.999Z,0.50
2023-02-27T07:06:07.959Z,0.50
2023-02-27T07:08:35.968Z,0.60
2023-02-27T07:11:02.857Z,0.30
2023-02-27T07:13:29.802Z,0.50
2023-02-27T07:15:56.821Z,0.50
2023-02-27T07:18:24.950Z,0.60
2023-02-27T07:20:52.216Z,0.80
2023-02-27T07:23:19.218Z,0.70
2023-02-27T07:25:47.898Z,0.90
2023-02-27T07:28:15.350Z,1.10
2023-02-27T07:30:42.241Z,1.30
2023-02-27T07:33:09.329Z,0.90
2023-02-27T07:35:36.261Z,1.10
2023-02-27T07:38:03.483Z,1.20
2023-02-27T07:40:30.475Z,1.30
2023-02-27T07:42:57.303Z,1.40
2023-02-27T07:45:24.206Z,1.60
2023-02-27T07:47:51.025Z,1.80
2023-02-27T07:50:18.054Z,1.60
2023-02-27T07:52:45.795Z,1.30
2023-02-27T07:55:14.302Z,1.50
2023-02-27T07:57:41.288Z,1.90
2023-02-27T08:00:09.964Z,2.00
2023-02-27T08:02:36.799Z,2.10
2023-02-27T08:05:04.643Z,2.10
2023-02-27T08:07:31.535Z,1.90
2023-02-27T08:09:58.356Z,2.30
2023-02-27T08:12:25.525Z,2.30
2023-02-27T08:14:52.487Z,2.30
2023-02-27T08:17:19.430Z,2.40
2023-02-27T08:19:46.981Z,2.50
2023-02-27T08:22:13.956Z,2.50
2023-02-27T08:24:40.984Z,2.70
2023-02-27T08:27:08.187Z,2.90
2023-02-27T08:29:35.155Z,3.00
2023-02-27T08:32:02.905Z,3.00
2023-02-27T08:34:31.451Z,3.10
2023-02-27T08:36:59.286Z,3.20
2023-02-27T08:39:26.650Z,3.10
2023-02-27T08:41:54.253Z,3.30
2023-02-27T08:44:21.550Z,3.60
2023-02-27T08:46:52.012Z,3.50
2023-02-27T08:49:21.528Z,3.60
2023-02-27T08:51:49.436Z,3.60
2023-02-27T08:54:17.966Z,3.90
2023-02-27T08:56:45.639Z,3.90
2023-02-27T08:59:13.560Z,4.20
2023-02-27T09:01:41.184Z,4.10
2023-02-27T09:04:08.044Z,4.10
2023-02-27T09:06:36.457Z,4.30
2023-02-27T09:09:04.865Z,4.50
2023-02-27T09:11:31.783Z,4.60
2023-02-27T09:13:58.851Z,4.50
2023-02-27T09:16:26.652Z,4.50
2023-02-27T09:22:01.801Z,4.80
2023-02-27T09:24:29.067Z,4.80
2023-02-27T09:27:04.902Z,4.60
2023-02-27T09:29:35.678Z,4.90
2023-02-27T09:32:12.082Z,4.70
2023-02-27T09:34:55.258Z,5.30
2023-02-27T09:37:29.872Z,5.00
2023-02-27T09:40:01.008Z,4.90
2023-02-27T09:43:14.939Z,5.10
2023-02-27T09:45:50.060Z,5.60
2023-02-27T09:48:30.154Z,5.40
2023-02-27T09:50:58.757Z,5.30
2023-02-27T09:53:40.107Z,5.00
2023-02-27T09:56:27.451Z,5.40
2023-02-27T09:59:44.447Z,5.60
2023-02-27T10:02:49.947Z,5.30
2023-02-27T10:06:13.686Z,5.40
2023-02-27T10:09:09.218Z,5.50
2023-02-27T10:12:03.446Z,5.50
2023-02-27T10:14:46.069Z,5.40
2023-02-27T10:17:31.685Z,5.60
2023-02-27T10:20:04.654Z,5.70
2023-02-27T10:22:39.145Z,5.60
2023-02-27T10:25:29.725Z,5.70
2023-02-27T10:28:12.722Z,5.70
2023-02-27T10:30:40.674Z,5.70
2023-02-27T10:33:21.467Z,5.50
2023-02-27T10:35:48.523Z,5.60
2023-02-27T10:38:39.614Z,5.50
2023-02-27T10:41:12.020Z,5.60
2023-02-27T10:43:40.539Z,5.80
2023-02-27T10:46:14.759Z,5.80
2023-02-27T10:48:41.971Z,5.80
2023-02-27T10:51:28.654Z,5.80
2023-02-27T10:54:23.659Z,5.70
2023-02-27T10:56:57.633Z,5.70
2023-02-27T10:59:32.870Z,5.80
2023-02-27T11:02:04.628Z,5.90
2023-02-27T11:04:39.950Z,6.00
2023-02-27T11:07:15.847Z,5.80
2023-02-27T11:09:43.430Z,5.60
2023-02-27T11:12:26.693Z,5.80
2023-02-27T11:15:22.051Z,5.70
2023-02-27T11:17:49.183Z,5.50
2023-02-27T11:20:37.618Z,5.60
2023-02-27T11:23:15.946Z,5.50
2023-02-27T11:25:44.243Z,5.50
2023-02-27T11:28:29.807Z,5.90
2023-02-27T11:31:05.650Z,5.90
2023-02-27T11:33:39.411Z,5.80
2023-02-27T11:36:07.606Z,6.20
2023-02-27T11:38:35.311Z,6.30
2023-02-27T11:41:07.020Z,6.50
2023-02-27T11:43:47.175Z,6.70
2023-02-27T11:46:45.175Z,6.80
2023-02-27T11:49:47.375Z,6.80
2023-02-27T11:52:47.641Z,6.70
2023-02-27T11:55:19.616Z,6.60
2023-02-27T11:57:52.454Z,6.60
2023-02-27T12:00:33.211Z,6.80
2023-02-27T12:03:18.042Z,6.90
2023-02-27T12:05:53.838Z,6.60
2023-02-27T12:08:42.829Z,6.90
2023-02-27T12:11:29.293Z,7.00
2023-02-27T12:14:19.920Z,6.90
2023-02-27T12:17:38.004Z,6.90
2023-02-27T12:20:46.908Z,7.40
2023-02-27T12:23:41.036Z,6.60
2023-02-27T12:26:42.432Z,6.50
2023-02-27T12:30:29.105Z,6.40
2023-02-27T12:33:10.263Z,6.30
2023-02-27T12:35:37.277Z,6.80
2023-02-27T12:38:06.941Z,6.40
2023-02-27T12:41:00.804Z,6.80
2023-02-27T12:43:49.525Z,6.60
2023-02-27T12:46:54.401Z,6.80
2023-02-27T12:49:48.515Z,6.40
2023-02-27T12:52:52.286Z,6.40
2023-02-27T12:55:31.966Z,6.20
2023-02-27T12:58:18.357Z,5.80
2023-02-27T13:01:00.088Z,6.00
2023-02-27T13:03:58.477Z,6.00
2023-02-27T13:06:37.320Z,6.30
2023-02-27T13:09:25.941Z,5.90
2023-02-27T13:12:26.270Z,6.00
2023-02-27T13:15:16.493Z,5.60
2023-02-27T13:17:53.544Z,5.50
2023-02-27T13:20:56.529Z,5.30
2023-02-27T13:23:48.057Z,5.40
2023-02-27T13:26:26.597Z,5.30
2023-02-27T13:28:55.552Z,5.30
2023-02-27T13:31:53.418Z,5.50
2023-02-27T13:34:35.337Z,5.50
2023-02-27T13:37:05.027Z,6.10
2023-02-27T13:39:45.885Z,6.50
2023-02-27T13:42:28.829Z,7.20
2023-02-27T13:45:04.605Z,7.30
2023-02-27T13:47:38.654Z,7.00
2023-02-27T13:50:17.922Z,7.50
2023-02-27T13:52:47.426Z,7.20
2023-02-27T13:55:39.010Z,7.30
2023-02-27T13:58:14.278Z,7.20
2023-02-27T14:00:41.558Z,7.10
2023-02-27T14:03:30.346Z,7.70
2023-02-27T14:06:01.705Z,7.60
2023-02-27T14:08:47.802Z,7.60
2023-02-27T14:11:40.187Z,7.20
2023-02-27T14:14:30.049Z,7.10
2023-02-27T14:16:59.056Z,7.20
2023-02-27T14:19:45.397Z,7.10
2023-02-27T14:22:12.441Z,7.30
2023-02-27T14:25:48.239Z,6.80
2023-02-27T14:29:29.102Z,6.80
2023-02-27T14:33:50.144Z,6.80
2023-02-27T14:40:31.242Z,7.30
2023-02-27T14:43:45.569Z,6.80
2023-02-27T14:46:57.084Z,7.30
2023-02-27T14:52:58.620Z,6.70
2023-02-27T14:55:33.540Z,7.30
2023-02-27T14:58:40.247Z,7.00
2023-02-27T15:01:26.749Z,6.80
2023-02-27T15:04:26.621Z,6.40
2023-02-27T15:07:11.427Z,6.70
2023-02-27T15:10:06.934Z,6.20
2023-02-27T15:13:01.867Z,6.20
2023-02-27T15:15:40.378Z,6.30
2023-02-27T15:25:33.856Z,6.70
2023-02-27T15:28:39.083Z,6.80
2023-02-27T15:31:20.216Z,7.20
2023-02-27T15:34:24.939Z,6.80
2023-02-27T15:37:16.479Z,6.40
2023-02-27T15:39:56.707Z,6.30
2023-02-27T15:43:28.603Z,6.00
2023-02-27T15:45:58.101Z,6.00
2023-02-27T15:48:29.548Z,6.50
2023-02-27T15:51:07.677Z,6.50
2023-02-27T15:53:43.200Z,6.30
2023-02-27T15:56:18.248Z,6.20
2023-02-27T15:59:10.160Z,6.10
2023-02-27T16:02:58.338Z,6.00
2023-02-27T16:05:37.402Z,5.70
2023-02-27T16:08:06.777Z,5.70
2023-02-27T16:10:45.795Z,5.60
2023-02-27T16:13:32.022Z,5.30
2023-02-27T16:16:01.944Z,5.40
2023-02-27T16:18:51.947Z,5.30
2023-02-27T16:25:20.017Z,5.20
2023-02-27T16:33:06.635Z,5.30
2023-02-27T16:35:35.455Z,5.40
2023-02-27T16:41:35.915Z,5.20
2023-02-27T16:44:39.296Z,5.30
2023-02-27T16:47:28.918Z,5.00
2023-02-27T16:54:20.343Z,5.50
2023-02-27T16:56:53.884Z,5.30
2023-02-27T17:06:03.575Z,4.90
2023-02-27T17:08:31.713Z,4.90
2023-02-27T17:11:24.070Z,4.90
2023-02-27T17:17:16.706Z,4.90
2023-02-27T17:20:12.883Z,4.70
2023-02-27T17:22:52.431Z,4.60
2023-02-27T17:28:22.699Z,4.60
2023-02-27T17:31:06.068Z,4.60
2023-02-27T17:37:04.159Z,4.50
2023-02-27T17:39:44.007Z,4.50
2023-02-27T17:43:19.015Z,4.50
2023-02-27T17:46:21.203Z,4.40
2023-02-27T17:49:11.075Z,4.50
2023-02-27T17:54:45.279Z,4.50
2023-02-27T17:57:24.020Z,4.30
2023-02-27T18:00:02.606Z,4.30
2023-02-27T18:02:38.696Z,4.40
2023-02-27T18:05:11.809Z,4.30
2023-02-27T18:07:47.718Z,4.20
2023-02-27T18:10:27.973Z,4.30
2023-02-27T18:13:08.179Z,4.20
2023-02-27T18:15:56.705Z,4.20
2023-02-27T18:18:27.375Z,4.00
2023-02-27T18:21:25.011Z,4.10
2023-02-27T18:24:23.169Z,4.20
2023-02-27T18:27:00.736Z,4.20
2023-02-27T18:29:35.087Z,4.10
2023-02-27T18:32:21.836Z,3.80
2023-02-27T18:38:18.907Z,4.10
2023-02-27T18:44:24.709Z,4.00
2023-02-27T18:46:57.121Z,3.80
2023-02-27T18:49:34.798Z,3.90
2023-02-27T18:52:02.269Z,3.80
2023-02-27T18:54:37.163Z,3.90
2023-02-27T18:57:08.729Z,4.00
2023-02-27T18:59:40.254Z,3.70
2023-02-27T19:02:14.014Z,3.70
2023-02-27T19:04:49.766Z,3.70
2023-02-27T19:07:17.657Z,3.60
2023-02-27T19:09:44.675Z,3.60
2023-02-27T19:12:11.681Z,3.70
2023-02-27T19:14:39.719Z,3.50
2023-02-27T19:17:07.260Z,3.60
2023-02-27T19:19:34.000Z,3.60
2023-02-27T19:22:00.953Z,3.70
2023-02-27T19:24:27.806Z,3.80
2023-02-27T19:26:54.698Z,4.00
2023-02-27T19:29:21.906Z,3.80
2023-02-27T19:31:49.084Z,3.70
2023-02-27T19:34:16.386Z,3.70
2023-02-27T19:36:43.502Z,3.60
2023-02-27T19:39:11.437Z,3.60
2023-02-27T19:41:38.361Z,3.50
2023-02-27T19:44:05.296Z,3.60
2023-02-27T19:46:34.551Z,3.50
2023-02-27T19:49:05.196Z,3.50
2023-02-27T19:51:32.493Z,3.50
2023-02-27T19:54:00.400Z,3.40
2023-02-27T19:56:29.626Z,3.40
2023-02-27T19:58:57.692Z,3.30
2023-02-27T20:01:27.668Z,3.30
2023-02-27T20:03:56.340Z,3.10
2023-02-27T20:06:26.057Z,3.20
2023-02-27T20:08:53.892Z,3.40
2023-02-27T20:11:21.744Z,3.30
2023-02-27T20:13:51.725Z,3.20
2023-02-27T20:16:23.911Z,3.30
2023-02-27T20:18:51.480Z,3.30
2023-02-27T20:21:22.707Z,3.30
2023-02-27T20:23:51.676Z,3.20
2023-02-27T20:26:31.864Z,3.30
2023-02-27T20:29:01.815Z,3.20
2023-02-27T20:31:32.229Z,3.10
2023-02-27T20:34:01.186Z,3.20
2023-02-27T20:36:28.961Z,3.00
2023-02-27T20:38:56.390Z,3.10
2023-02-27T20:41:28.181Z,3.10
2023-02-27T20:43:56.798Z,3.20
2023-02-27T20:46:28.508Z,3.10
2023-02-27T20:49:01.688Z,3.10
2023-02-27T20:51:36.048Z,3.10
2023-02-27T20:54:07.943Z,3.10
2023-02-27T20:56:41.396Z,3.10
2023-02-27T20:59:14.531Z,3.00
2023-02-27T21:01:51.123Z,3.20
2023-02-27T21:04:42.545Z,3.10
2023-02-27T21:07:36.176Z,3.30
2023-02-27T21:10:03.287Z,3.20
2023-02-27T21:12:30.483Z,3.10
2023-02-27T21:15:47.451Z,3.20
2023-02-27T21:18:15.795Z,3.30
2023-02-27T21:20:44.246Z,3.20
2023-02-27T21:23:22.124Z,3.20
2023-02-27T21:25:50.467Z,3.10
2023-02-27T21:28:17.395Z,3.00
2023-02-27T21:30:58.134Z,2.90
2023-02-27T21:33:31.134Z,3.10
2023-02-27T21:36:12.122Z,3.30
2023-02-27T21:38:48.813Z,3.30
2023-02-27T21:41:16.510Z,3.10
2023-02-27T21:44:16.820Z,3.10
2023-02-27T21:46:59.317Z,3.00
2023-02-27T21:49:28.796Z,3.10
2023-02-27T21:51:57.087Z,3.00
2023-02-27T21:54:29.916Z,2.90
2023-02-27T21:56:58.796Z,2.90
2023-02-27T21:59:26.106Z,3.10
2023-02-27T22:01:53.156Z,2.80
2023-02-27T22:04:28.458Z,2.70
2023-02-27T22:06:55.375Z,2.90
2023-02-27T22:09:22.380Z,2.80
2023-02-27T22:11:49.903Z,2.50
2023-02-27T22:14:28.460Z,2.70
2023-02-27T22:16:55.409Z,3.00
2023-02-27T22:19:23.346Z,2.70
2023-02-27T22:24:49.231Z,2.60
2023-02-27T22:27:16.140Z,2.60
2023-02-27T22:29:43.188Z,2.60
2023-02-27T22:32:10.249Z,2.30
2023-02-27T22:34:37.243Z,2.50
2023-02-27T22:37:04.207Z,2.30
2023-02-27T22:39:31.114Z,2.50
2023-02-27T22:41:57.992Z,2.40
2023-02-27T22:44:25.177Z,2.40
2023-02-27T22:46:52.698Z,2.50
2023-02-27T22:49:22.284Z,2.50
2023-02-27T22:51:51.647Z,2.30
2023-02-27T22:54:22.572Z,2.50
2023-02-27T22:56:52.612Z,2.20
2023-02-27T22:59:20.645Z,2.30
2023-02-27T23:01:48.751Z,2.20
2023-02-27T23:04:19.705Z,2.50
2023-02-27T23:06:46.806Z,2.40
2023-02-27T23:09:18.520Z,2.30
2023-02-27T23:11:46.118Z,2.40
2023-02-27T23:14:13.704Z,2.60
2023-02-27T23:16:51.185Z,2.40
2023-02-27T23:19:21.555Z,2.20
2023-02-27T23:21:49.099Z,2.00
2023-02-27T23:24:19.162Z,2.20
2023-02-27T23:27:25.060Z,2.20
2023-02-27T23:29:53.071Z,2.10
2023-02-27T23:32:20.123Z,2.30
2023-02-27T23:34:49.639Z,2.10
2023-02-27T23:37:17.079Z,2.00
2023-02-27T23:39:44.140Z,2.10
2023-02-27T23:42:11.375Z,1.90
2023-02-27T23:44:38.188Z,1.60
2023-02-27T23:47:05.105Z,1.70
2023-02-27T23:49:31.944Z,2.00
2023-02-27T23:51:59.162Z,1.90
2023-02-27T23:54:26.504Z,2.10
2023-02-27T23:56:53.557Z,2.20
2023-02-27T23:59:20.491Z,2.10
